sensor_id;sensor_type;location;lat;lon;timestamp;pressure;altitude;pressure_sealevel;temperature;humidity
63019;BME280;49105;46.046;10.760;2022-09-29T00:00:10;93977.81;;;13.04;70.07
63019;BME280;49105;46.046;10.760;2022-09-29T00:02:35;93972.94;;;12.94;71.08
63019;BME280;49105;46.046;10.760;2022-09-29T00:05:01;93978.75;;;12.87;71.58
63019;BME280;49105;46.046;10.760;2022-09-29T00:07:27;93978.00;;;12.86;71.54
63019;BME280;49105;46.046;10.760;2022-09-29T00:09:53;93968.16;;;12.87;71.39
63019;BME280;49105;46.046;10.760;2022-09-29T00:12:18;93971.25;;;12.89;71.01
63019;BME280;49105;46.046;10.760;2022-09-29T00:14:44;93964.63;;;12.95;71.12
63019;BME280;49105;46.046;10.760;2022-09-29T00:17:09;93974.47;;;12.95;71.18
63019;BME280;49105;46.046;10.760;2022-09-29T00:19:35;93976.69;;;12.93;71.24
63019;BME280;49105;46.046;10.760;2022-09-29T00:22:00;93976.22;;;12.90;71.45
63019;BME280;49105;46.046;10.760;2022-09-29T00:24:26;93978.91;;;12.90;71.34
63019;BME280;49105;46.046;10.760;2022-09-29T00:26:52;93983.31;;;12.86;71.16
63019;BME280;49105;46.046;10.760;2022-09-29T00:29:17;93984.28;;;12.82;70.93
63019;BME280;49105;46.046;10.760;2022-09-29T00:31:42;93986.81;;;12.78;71.18
63019;BME280;49105;46.046;10.760;2022-09-29T00:34:08;93985.84;;;12.83;70.87
63019;BME280;49105;46.046;10.760;2022-09-29T00:36:33;93981.25;;;12.92;70.56
63019;BME280;49105;46.046;10.760;2022-09-29T00:38:59;93974.16;;;12.96;70.88
63019;BME280;49105;46.046;10.760;2022-09-29T00:41:27;93964.75;;;12.99;70.88
63019;BME280;49105;46.046;10.760;2022-09-29T00:46:45;93957.78;;;12.94;70.99
63019;BME280;49105;46.046;10.760;2022-09-29T00:49:38;93953.25;;;12.95;70.73
63019;BME280;49105;46.046;10.760;2022-09-29T00:52:07;93956.47;;;13.00;71.16
63019;BME280;49105;46.046;10.760;2022-09-29T00:54:46;93947.53;;;13.05;70.44
63019;BME280;49105;46.046;10.760;2022-09-29T00:57:16;93950.84;;;13.14;70.68
63019;BME280;49105;46.046;10.760;2022-09-29T01:00:05;93948.31;;;13.18;70.77
63019;BME280;49105;46.046;10.760;2022-09-29T01:02:35;93951.75;;;13.18;70.31
63019;BME280;49105;46.046;10.760;2022-09-29T01:05:07;93957.03;;;13.06;70.21
63019;BME280;49105;46.046;10.760;2022-09-29T01:07:34;93951.91;;;12.88;70.68
63019;BME280;49105;46.046;10.760;2022-09-29T01:10:00;93956.75;;;12.86;71.46
63019;BME280;49105;46.046;10.760;2022-09-29T01:12:26;93955.34;;;12.89;71.01
63019;BME280;49105;46.046;10.760;2022-09-29T01:14:52;93959.19;;;12.91;71.16
63019;BME280;49105;46.046;10.760;2022-09-29T01:17:19;93955.47;;;12.93;70.79
63019;BME280;49105;46.046;10.760;2022-09-29T01:19:57;93958.13;;;12.93;71.23
63019;BME280;49105;46.046;10.760;2022-09-29T01:41:50;93940.81;;;12.86;70.90
63019;BME280;49105;46.046;10.760;2022-09-29T01:44:23;93948.56;;;12.91;70.83
63019;BME280;49105;46.046;10.760;2022-09-29T01:47:02;93947.03;;;12.90;70.91
63019;BME280;49105;46.046;10.760;2022-09-29T01:49:35;93942.16;;;12.80;70.96
63019;BME280;49105;46.046;10.760;2022-09-29T01:52:08;93942.66;;;12.74;70.95
63019;BME280;49105;46.046;10.760;2022-09-29T01:54:48;93941.34;;;12.68;71.40
63019;BME280;49105;46.046;10.760;2022-09-29T01:57:28;93949.75;;;12.49;72.21
63019;BME280;49105;46.046;10.760;2022-09-29T02:00:06;93947.38;;;12.35;72.49
63019;BME280;49105;46.046;10.760;2022-09-29T02:02:45;93947.25;;;12.31;72.74
63019;BME280;49105;46.046;10.760;2022-09-29T02:05:37;93944.47;;;12.28;72.43
63019;BME280;49105;46.046;10.760;2022-09-29T02:08:09;93950.53;;;12.28;72.07
63019;BME280;49105;46.046;10.760;2022-09-29T02:10:53;93964.91;;;12.27;72.35
63019;BME280;49105;46.046;10.760;2022-09-29T02:13:22;93962.53;;;12.34;72.03
63019;BME280;49105;46.046;10.760;2022-09-29T02:15:50;93957.47;;;12.41;72.34
63019;BME280;49105;46.046;10.760;2022-09-29T02:18:21;93964.44;;;12.46;71.88
63019;BME280;49105;46.046;10.760;2022-09-29T02:20:48;93963.03;;;12.49;71.70
63019;BME280;49105;46.046;10.760;2022-09-29T02:23:14;93965.22;;;12.47;72.12
63019;BME280;49105;46.046;10.760;2022-09-29T02:25:40;93970.41;;;12.43;71.92
63019;BME280;49105;46.046;10.760;2022-09-29T02:28:06;93964.78;;;12.45;71.76
63019;BME280;49105;46.046;10.760;2022-09-29T02:30:33;93960.81;;;12.51;71.68
63019;BME280;49105;46.046;10.760;2022-09-29T02:32:59;93963.38;;;12.47;71.62
63019;BME280;49105;46.046;10.760;2022-09-29T02:35:28;93967.88;;;12.47;71.75
63019;BME280;49105;46.046;10.760;2022-09-29T02:38:05;93966.31;;;12.46;71.72
63019;BME280;49105;46.046;10.760;2022-09-29T02:40:48;93966.31;;;12.46;71.60
63019;BME280;49105;46.046;10.760;2022-09-29T02:56:57;93969.38;;;12.35;72.23
63019;BME280;49105;46.046;10.760;2022-09-29T02:59:36;93975.31;;;12.32;71.80
63019;BME280;49105;46.046;10.760;2022-09-29T03:02:03;93981.88;;;12.35;72.05
63019;BME280;49105;46.046;10.760;2022-09-29T03:04:28;93986.50;;;12.38;72.09
63019;BME280;49105;46.046;10.760;2022-09-29T03:06:54;93986.66;;;12.41;71.55
63019;BME280;49105;46.046;10.760;2022-09-29T03:09:19;93972.72;;;12.45;72.16
63019;BME280;49105;46.046;10.760;2022-09-29T03:11:45;93968.75;;;12.38;71.53
63019;BME280;49105;46.046;10.760;2022-09-29T03:14:11;93968.22;;;12.24;72.52
63019;BME280;49105;46.046;10.760;2022-09-29T03:16:37;93968.72;;;12.17;72.51
63019;BME280;49105;46.046;10.760;2022-09-29T03:19:03;93977.91;;;12.20;72.51
63019;BME280;49105;46.046;10.760;2022-09-29T03:21:30;93964.22;;;12.18;71.97
63019;BME280;49105;46.046;10.760;2022-09-29T03:23:55;93974.81;;;12.18;72.50
63019;BME280;49105;46.046;10.760;2022-09-29T03:26:21;93974.16;;;12.21;72.35
63019;BME280;49105;46.046;10.760;2022-09-29T03:28:48;93972.41;;;12.25;72.33
63019;BME280;49105;46.046;10.760;2022-09-29T03:31:14;93966.94;;;12.30;72.00
63019;BME280;49105;46.046;10.760;2022-09-29T03:33:39;93961.72;;;12.34;72.21
63019;BME280;49105;46.046;10.760;2022-09-29T03:36:05;93955.66;;;12.33;71.51
63019;BME280;49105;46.046;10.760;2022-09-29T03:38:33;93947.91;;;12.28;71.62
63019;BME280;49105;46.046;10.760;2022-09-29T03:40:59;93966.47;;;12.28;72.10
63019;BME280;49105;46.046;10.760;2022-09-29T03:43:24;93954.75;;;12.29;71.80
63019;BME280;49105;46.046;10.760;2022-09-29T03:45:51;93954.31;;;12.27;72.32
63019;BME280;49105;46.046;10.760;2022-09-29T03:48:18;93955.84;;;12.28;72.10
63019;BME280;49105;46.046;10.760;2022-09-29T03:50:45;93965.69;;;12.28;71.80
63019;BME280;49105;46.046;10.760;2022-09-29T03:53:12;93965.81;;;12.31;72.06
63019;BME280;49105;46.046;10.760;2022-09-29T03:55:37;93964.00;;;12.23;72.08
63019;BME280;49105;46.046;10.760;2022-09-29T03:58:03;93958.63;;;12.11;72.50
63019;BME280;49105;46.046;10.760;2022-09-29T04:00:28;93967.09;;;12.04;72.11
63019;BME280;49105;46.046;10.760;2022-09-29T04:02:54;93975.81;;;12.05;72.54
63019;BME280;49105;46.046;10.760;2022-09-29T04:05:20;93975.19;;;12.08;72.79
63019;BME280;49105;46.046;10.760;2022-09-29T04:07:46;93978.09;;;12.15;72.79
63019;BME280;49105;46.046;10.760;2022-09-29T04:10:11;93978.47;;;12.26;72.34
63019;BME280;49105;46.046;10.760;2022-09-29T04:12:37;93985.31;;;12.35;71.88
63019;BME280;49105;46.046;10.760;2022-09-29T04:15:02;93982.44;;;12.40;71.98
63019;BME280;49105;46.046;10.760;2022-09-29T04:17:28;93978.47;;;12.26;72.37
63019;BME280;49105;46.046;10.760;2022-09-29T04:19:54;93992.13;;;12.15;72.65
63019;BME280;49105;46.046;10.760;2022-09-29T04:22:19;93994.31;;;12.13;72.31
63019;BME280;49105;46.046;10.760;2022-09-29T04:24:45;93998.72;;;12.09;72.69
63019;BME280;49105;46.046;10.760;2022-09-29T04:27:13;93999.53;;;12.10;72.86
63019;BME280;49105;46.046;10.760;2022-09-29T04:29:38;94002.94;;;12.10;73.06
63019;BME280;49105;46.046;10.760;2022-09-29T04:32:03;94006.31;;;12.20;72.72
63019;BME280;49105;46.046;10.760;2022-09-29T04:34:30;93998.09;;;12.33;72.65
63019;BME280;49105;46.046;10.760;2022-09-29T04:36:56;93996.69;;;12.36;72.33
63019;BME280;49105;46.046;10.760;2022-09-29T04:39:21;94000.38;;;12.23;72.29
63019;BME280;49105;46.046;10.760;2022-09-29T04:41:47;93995.75;;;12.11;72.94
63019;BME280;49105;46.046;10.760;2022-09-29T04:44:12;93993.31;;;12.06;72.82
63019;BME280;49105;46.046;10.760;2022-09-29T04:46:38;93988.78;;;12.06;73.00
63019;BME280;49105;46.046;10.760;2022-09-29T04:49:03;93982.94;;;12.13;72.92
63019;BME280;49105;46.046;10.760;2022-09-29T04:51:29;93990.06;;;12.21;72.46
63019;BME280;49105;46.046;10.760;2022-09-29T04:53:54;93991.63;;;12.22;72.09
63019;BME280;49105;46.046;10.760;2022-09-29T04:56:20;93991.88;;;12.29;72.32
63019;BME280;49105;46.046;10.760;2022-09-29T04:58:45;93990.13;;;12.33;71.97
63019;BME280;49105;46.046;10.760;2022-09-29T05:01:11;93989.97;;;12.38;72.55
63019;BME280;49105;46.046;10.760;2022-09-29T05:03:38;93980.22;;;12.42;71.96
63019;BME280;49105;46.046;10.760;2022-09-29T05:06:03;93991.31;;;12.45;72.56
63019;BME280;49105;46.046;10.760;2022-09-29T05:08:29;93994.16;;;12.39;72.15
63019;BME280;49105;46.046;10.760;2022-09-29T05:10:54;93990.59;;;12.35;72.74
63019;BME280;49105;46.046;10.760;2022-09-29T05:13:20;93995.13;;;12.35;72.56
63019;BME280;49105;46.046;10.760;2022-09-29T05:15:45;93993.47;;;12.30;72.75
63019;BME280;49105;46.046;10.760;2022-09-29T05:18:10;94000.38;;;12.23;72.61
63019;BME280;49105;46.046;10.760;2022-09-29T05:20:36;94011.75;;;12.23;72.97
63019;BME280;49105;46.046;10.760;2022-09-29T05:23:01;94020.91;;;12.26;72.52
63019;BME280;49105;46.046;10.760;2022-09-29T05:25:27;94018.41;;;12.29;72.42
63019;BME280;49105;46.046;10.760;2022-09-29T05:27:52;94014.00;;;12.33;72.38
63019;BME280;49105;46.046;10.760;2022-09-29T05:30:18;94024.00;;;12.36;72.35
63019;BME280;49105;46.046;10.760;2022-09-29T05:32:43;94024.13;;;12.40;72.20
63019;BME280;49105;46.046;10.760;2022-09-29T05:35:10;94020.84;;;12.43;72.30
63019;BME280;49105;46.046;10.760;2022-09-29T05:37:35;94025.81;;;12.45;72.29
63019;BME280;49105;46.046;10.760;2022-09-29T05:40:00;94023.59;;;12.47;71.96
63019;BME280;49105;46.046;10.760;2022-09-29T05:42:26;94031.09;;;12.45;72.27
63019;BME280;49105;46.046;10.760;2022-09-29T05:44:52;94028.53;;;12.36;72.47
63019;BME280;49105;46.046;10.760;2022-09-29T05:47:17;94030.84;;;12.37;72.56
63019;BME280;49105;46.046;10.760;2022-09-29T05:49:42;94035.50;;;12.40;72.59
63019;BME280;49105;46.046;10.760;2022-09-29T05:52:08;94037.06;;;12.41;72.98
63019;BME280;49105;46.046;10.760;2022-09-29T05:54:55;94032.84;;;12.40;73.07
63019;BME280;49105;46.046;10.760;2022-09-29T05:57:20;94028.66;;;12.39;72.54
63019;BME280;49105;46.046;10.760;2022-09-29T05:59:46;94031.75;;;12.41;72.35
63019;BME280;49105;46.046;10.760;2022-09-29T06:02:11;94028.91;;;12.47;72.67
63019;BME280;49105;46.046;10.760;2022-09-29T06:04:37;94033.06;;;12.56;72.96
63019;BME280;49105;46.046;10.760;2022-09-29T06:07:02;94031.63;;;12.59;72.24
63019;BME280;49105;46.046;10.760;2022-09-29T06:09:28;94030.72;;;12.55;72.19
63019;BME280;49105;46.046;10.760;2022-09-29T06:11:54;94029.81;;;12.51;72.40
63019;BME280;49105;46.046;10.760;2022-09-29T06:14:19;94022.94;;;12.50;72.99
63019;BME280;49105;46.046;10.760;2022-09-29T06:16:45;94022.31;;;12.53;72.74
63019;BME280;49105;46.046;10.760;2022-09-29T06:19:10;94030.53;;;12.60;72.26
63019;BME280;49105;46.046;10.760;2022-09-29T06:21:36;94031.75;;;12.62;72.72
63019;BME280;49105;46.046;10.760;2022-09-29T06:24:02;94034.09;;;12.64;72.33
63019;BME280;49105;46.046;10.760;2022-09-29T06:26:28;94034.09;;;12.64;72.41
63019;BME280;49105;46.046;10.760;2022-09-29T06:28:55;94033.97;;;12.60;72.21
63019;BME280;49105;46.046;10.760;2022-09-29T06:31:23;94047.53;;;12.59;72.33
63019;BME280;49105;46.046;10.760;2022-09-29T06:33:49;94044.25;;;12.62;71.89
63019;BME280;49105;46.046;10.760;2022-09-29T06:36:20;94041.59;;;12.62;72.36
63019;BME280;49105;46.046;10.760;2022-09-29T06:39:06;94032.72;;;12.58;72.71
63019;BME280;49105;46.046;10.760;2022-09-29T06:41:32;94029.63;;;12.56;72.64
63019;BME280;49105;46.046;10.760;2022-09-29T06:43:59;94033.19;;;12.60;72.61
63019;BME280;49105;46.046;10.760;2022-09-29T06:46:25;94030.13;;;12.70;72.23
63019;BME280;49105;46.046;10.760;2022-09-29T06:48:53;94021.38;;;12.90;72.62
63019;BME280;49105;46.046;10.760;2022-09-29T06:51:20;94023.56;;;13.09;72.04
63019;BME280;49105;46.046;10.760;2022-09-29T06:53:49;94020.16;;;13.21;71.53
63019;BME280;49105;46.046;10.760;2022-09-29T06:56:15;94019.34;;;13.29;71.66
63019;BME280;49105;46.046;10.760;2022-09-29T06:58:41;94018.00;;;13.35;71.68
63019;BME280;49105;46.046;10.760;2022-09-29T07:01:06;94016.47;;;13.47;71.78
63019;BME280;49105;46.046;10.760;2022-09-29T07:03:33;94014.25;;;13.49;71.03
63019;BME280;49105;46.046;10.760;2022-09-29T07:06:06;94015.63;;;13.55;71.57
63019;BME280;49105;46.046;10.760;2022-09-29T07:08:32;94016.50;;;13.59;70.91
63019;BME280;49105;46.046;10.760;2022-09-29T07:11:01;94010.19;;;13.51;71.12
63019;BME280;49105;46.046;10.760;2022-09-29T07:13:27;94015.34;;;13.35;71.21
63019;BME280;49105;46.046;10.760;2022-09-29T07:15:53;94011.09;;;13.22;71.74
63019;BME280;49105;46.046;10.760;2022-09-29T07:18:19;94004.09;;;13.18;71.11
63019;BME280;49105;46.046;10.760;2022-09-29T07:20:44;94003.34;;;13.17;71.43
63019;BME280;49105;46.046;10.760;2022-09-29T07:23:10;94005.53;;;13.15;71.71
63019;BME280;49105;46.046;10.760;2022-09-29T07:25:35;94010.59;;;13.08;72.00
63019;BME280;49105;46.046;10.760;2022-09-29T07:28:01;94003.94;;;13.02;71.47
63019;BME280;49105;46.046;10.760;2022-09-29T07:30:27;94007.25;;;12.99;72.03
63019;BME280;49105;46.046;10.760;2022-09-29T07:32:53;94002.56;;;12.96;71.98
63019;BME280;49105;46.046;10.760;2022-09-29T07:35:23;93982.22;;;13.00;71.93
63019;BME280;49105;46.046;10.760;2022-09-29T07:37:54;93997.97;;;13.05;72.02
63019;BME280;49105;46.046;10.760;2022-09-29T07:40:21;93995.53;;;13.12;71.42
63019;BME280;49105;46.046;10.760;2022-09-29T07:42:47;94001.44;;;13.18;71.95
63019;BME280;49105;46.046;10.760;2022-09-29T07:45:14;94006.69;;;13.26;71.46
63019;BME280;49105;46.046;10.760;2022-09-29T07:47:39;94013.81;;;13.34;71.22
63019;BME280;49105;46.046;10.760;2022-09-29T07:50:05;94008.72;;;13.42;71.32
63019;BME280;49105;46.046;10.760;2022-09-29T07:52:30;93997.78;;;13.55;71.55
63019;BME280;49105;46.046;10.760;2022-09-29T07:54:56;93996.69;;;13.69;70.71
63019;BME280;49105;46.046;10.760;2022-09-29T07:57:21;93990.81;;;13.75;71.26
63019;BME280;49105;46.046;10.760;2022-09-29T07:59:47;93989.47;;;13.81;70.72
63019;BME280;49105;46.046;10.760;2022-09-29T08:02:12;93990.81;;;13.87;71.12
63019;BME280;49105;46.046;10.760;2022-09-29T08:04:38;94001.13;;;13.89;70.32
63019;BME280;49105;46.046;10.760;2022-09-29T08:07:03;94006.00;;;13.99;70.74
63019;BME280;49105;46.046;10.760;2022-09-29T08:09:29;94006.66;;;14.08;70.80
63019;BME280;49105;46.046;10.760;2022-09-29T08:11:54;93995.66;;;14.22;70.05
63019;BME280;49105;46.046;10.760;2022-09-29T08:14:20;94003.63;;;14.34;69.93
63019;BME280;49105;46.046;10.760;2022-09-29T08:16:46;93996.63;;;14.42;69.80
63019;BME280;49105;46.046;10.760;2022-09-29T08:19:11;93991.53;;;14.49;69.67
63019;BME280;49105;46.046;10.760;2022-09-29T08:21:37;93998.94;;;14.56;69.41
63019;BME280;49105;46.046;10.760;2022-09-29T08:24:04;94007.81;;;14.60;69.58
63019;BME280;49105;46.046;10.760;2022-09-29T08:26:35;94000.03;;;14.67;69.07
63019;BME280;49105;46.046;10.760;2022-09-29T08:29:01;93998.13;;;14.68;69.27
63019;BME280;49105;46.046;10.760;2022-09-29T08:31:27;94010.31;;;14.69;68.64
63019;BME280;49105;46.046;10.760;2022-09-29T08:33:55;94005.97;;;14.76;68.89
63019;BME280;49105;46.046;10.760;2022-09-29T08:36:22;93987.53;;;14.83;69.09
63019;BME280;49105;46.046;10.760;2022-09-29T08:38:49;93996.69;;;14.98;68.74
63019;BME280;49105;46.046;10.760;2022-09-29T08:44:11;93996.00;;;15.45;67.87
63019;BME280;49105;46.046;10.760;2022-09-29T08:46:47;93984.34;;;15.66;67.57
63019;BME280;49105;46.046;10.760;2022-09-29T08:49:19;93985.56;;;15.68;66.83
63019;BME280;49105;46.046;10.760;2022-09-29T08:51:51;93983.72;;;15.56;66.70
63019;BME280;49105;46.046;10.760;2022-09-29T08:54:33;93995.16;;;15.57;66.71
63019;BME280;49105;46.046;10.760;2022-09-29T08:57:00;93993.97;;;15.70;66.56
63019;BME280;49105;46.046;10.760;2022-09-29T08:59:27;94000.50;;;15.88;66.19
63019;BME280;49105;46.046;10.760;2022-09-29T09:02:07;94000.91;;;16.06;65.93
63019;BME280;49105;46.046;10.760;2022-09-29T09:05:03;93989.63;;;16.13;65.34
63019;BME280;49105;46.046;10.760;2022-09-29T09:07:44;93992.72;;;16.15;65.47
63019;BME280;49105;46.046;10.760;2022-09-29T09:13:23;93990.50;;;16.36;64.99
63019;BME280;49105;46.046;10.760;2022-09-29T09:19:08;94008.28;;;16.29;64.38
63019;BME280;49105;46.046;10.760;2022-09-29T09:21:43;94000.03;;;16.18;64.20
63019;BME280;49105;46.046;10.760;2022-09-29T09:24:24;93995.13;;;16.20;64.32
63019;BME280;49105;46.046;10.760;2022-09-29T09:26:53;93999.06;;;16.26;64.31
63019;BME280;49105;46.046;10.760;2022-09-29T09:29:30;93984.88;;;16.22;63.26
63019;BME280;49105;46.046;10.760;2022-09-29T09:32:00;93994.88;;;16.25;63.30
63019;BME280;49105;46.046;10.760;2022-09-29T09:37:03;93992.50;;;16.40;63.27
63019;BME280;49105;46.046;10.760;2022-09-29T09:39:42;93989.53;;;16.45;62.92
63019;BME280;49105;46.046;10.760;2022-09-29T09:42:30;93987.38;;;16.50;62.77
63019;BME280;49105;46.046;10.760;2022-09-29T09:45:05;93977.47;;;16.51;62.38
63019;BME280;49105;46.046;10.760;2022-09-29T09:47:41;93979.72;;;16.49;62.01
63019;BME280;49105;46.046;10.760;2022-09-29T09:50:18;93972.06;;;16.47;61.96
63019;BME280;49105;46.046;10.760;2022-09-29T09:52:55;93974.28;;;16.45;61.72
63019;BME280;49105;46.046;10.760;2022-09-29T09:55:25;93973.13;;;16.43;62.10
63019;BME280;49105;46.046;10.760;2022-09-29T10:00:44;93971.81;;;16.36;61.90
63019;BME280;49105;46.046;10.760;2022-09-29T10:03:11;93973.66;;;16.32;62.30
63019;BME280;49105;46.046;10.760;2022-09-29T10:05:41;93971.53;;;16.22;61.94
63019;BME280;49105;46.046;10.760;2022-09-29T10:08:30;93971.91;;;16.05;62.18
63019;BME280;49105;46.046;10.760;2022-09-29T10:11:02;93976.66;;;15.96;62.55
63019;BME280;49105;46.046;10.760;2022-09-29T10:13:30;93967.09;;;15.95;62.72
63019;BME280;49105;46.046;10.760;2022-09-29T10:21:22;93981.91;;;15.92;63.09
63019;BME280;49105;46.046;10.760;2022-09-29T10:23:52;93983.78;;;15.92;63.13
63019;BME280;49105;46.046;10.760;2022-09-29T10:28:56;93986.38;;;15.88;63.71
63019;BME280;49105;46.046;10.760;2022-09-29T10:33:59;93982.63;;;15.73;64.24
63019;BME280;49105;46.046;10.760;2022-09-29T10:39:42;93988.34;;;15.44;65.93
63019;BME280;49105;46.046;10.760;2022-09-29T10:42:34;93998.31;;;15.31;66.56
63019;BME280;49105;46.046;10.760;2022-09-29T10:45:20;93988.13;;;15.21;66.99
63019;BME280;49105;46.046;10.760;2022-09-29T10:50:34;94007.25;;;15.23;68.04
63019;BME280;49105;46.046;10.760;2022-09-29T10:53:03;94012.63;;;15.26;68.03
63019;BME280;49105;46.046;10.760;2022-09-29T10:55:35;94014.63;;;15.29;67.93
63019;BME280;49105;46.046;10.760;2022-09-29T10:58:23;94013.44;;;15.27;68.01
63019;BME280;49105;46.046;10.760;2022-09-29T11:01:11;94011.44;;;15.24;68.13
63019;BME280;49105;46.046;10.760;2022-09-29T11:03:40;94002.91;;;15.18;68.22
63019;BME280;49105;46.046;10.760;2022-09-29T11:06:11;94006.69;;;15.17;68.20
63019;BME280;49105;46.046;10.760;2022-09-29T11:08:58;93993.28;;;15.13;68.62
63019;BME280;49105;46.046;10.760;2022-09-29T11:13:59;93994.19;;;14.89;69.17
63019;BME280;49105;46.046;10.760;2022-09-29T11:18:52;94005.50;;;14.86;69.57
63019;BME280;49105;46.046;10.760;2022-09-29T11:29:30;93997.47;;;14.99;69.66
63019;BME280;49105;46.046;10.760;2022-09-29T11:34:51;94005.22;;;15.48;69.39
63019;BME280;49105;46.046;10.760;2022-09-29T11:37:55;94006.88;;;15.68;69.16
63019;BME280;49105;46.046;10.760;2022-09-29T11:40:33;94010.84;;;15.74;69.12
63019;BME280;49105;46.046;10.760;2022-09-29T11:45:49;94005.50;;;15.74;69.24
63019;BME280;49105;46.046;10.760;2022-09-29T11:51:43;94009.59;;;15.56;69.52
63019;BME280;49105;46.046;10.760;2022-09-29T12:03:03;93978.19;;;15.33;69.62
63019;BME280;49105;46.046;10.760;2022-09-29T12:05:49;93985.84;;;15.35;69.68
63019;BME280;49105;46.046;10.760;2022-09-29T12:08:22;93990.16;;;15.39;69.61
63019;BME280;49105;46.046;10.760;2022-09-29T12:13:56;93989.63;;;15.34;68.98
63019;BME280;49105;46.046;10.760;2022-09-29T12:16:32;93986.09;;;15.30;69.13
63019;BME280;49105;46.046;10.760;2022-09-29T12:19:31;93988.22;;;15.24;69.35
63019;BME280;49105;46.046;10.760;2022-09-29T12:22:00;93989.69;;;15.22;69.20
63019;BME280;49105;46.046;10.760;2022-09-29T12:24:37;93990.72;;;15.17;69.48
63019;BME280;49105;46.046;10.760;2022-09-29T12:27:17;93992.41;;;15.09;69.37
63019;BME280;49105;46.046;10.760;2022-09-29T12:29:49;93986.72;;;14.95;69.69
63019;BME280;49105;46.046;10.760;2022-09-29T12:32:19;93988.66;;;14.82;70.34
63019;BME280;49105;46.046;10.760;2022-09-29T12:34:56;93980.03;;;14.73;70.92
63019;BME280;49105;46.046;10.760;2022-09-29T12:37:44;93979.16;;;14.69;70.75
63019;BME280;49105;46.046;10.760;2022-09-29T12:40:40;93993.56;;;14.68;70.70
63019;BME280;49105;46.046;10.760;2022-09-29T12:43:28;94000.13;;;14.71;70.72
63019;BME280;49105;46.046;10.760;2022-09-29T12:46:05;94001.56;;;14.68;70.64
63019;BME280;49105;46.046;10.760;2022-09-29T12:48:41;94008.00;;;14.67;70.64
63019;BME280;49105;46.046;10.760;2022-09-29T12:51:41;94011.03;;;14.66;70.68
63019;BME280;49105;46.046;10.760;2022-09-29T12:59:54;94008.50;;;14.57;70.93
63019;BME280;49105;46.046;10.760;2022-09-29T13:18:43;94030.56;;;14.33;71.37
63019;BME280;49105;46.046;10.760;2022-09-29T13:26:40;94032.91;;;14.10;71.93
63019;BME280;49105;46.046;10.760;2022-09-29T13:29:16;94029.94;;;14.11;71.67
63019;BME280;49105;46.046;10.760;2022-09-29T13:31:45;94035.34;;;14.15;71.41
63019;BME280;49105;46.046;10.760;2022-09-29T13:34:31;94038.13;;;14.06;71.60
63019;BME280;49105;46.046;10.760;2022-09-29T13:37:11;94028.72;;;13.97;72.11
63019;BME280;49105;46.046;10.760;2022-09-29T13:39:41;94028.16;;;13.91;72.77
63019;BME280;49105;46.046;10.760;2022-09-29T13:42:49;94044.88;;;13.79;72.51
63019;BME280;49105;46.046;10.760;2022-09-29T13:47:55;94044.88;;;13.79;72.73
63019;BME280;49105;46.046;10.760;2022-09-29T13:50:50;94036.78;;;13.76;72.44
63019;BME280;49105;46.046;10.760;2022-09-29T13:56:08;94036.91;;;13.67;72.81
63019;BME280;49105;46.046;10.760;2022-09-29T14:01:32;94034.53;;;13.65;72.96
63019;BME280;49105;46.046;10.760;2022-09-29T14:07:04;94046.50;;;13.59;73.38
63019;BME280;49105;46.046;10.760;2022-09-29T14:09:33;94054.72;;;13.54;73.65
63019;BME280;49105;46.046;10.760;2022-09-29T14:12:03;94054.25;;;13.52;73.44
63019;BME280;49105;46.046;10.760;2022-09-29T14:14:35;94045.63;;;13.55;73.29
63019;BME280;49105;46.046;10.760;2022-09-29T14:32:58;94058.00;;;13.39;73.93
63019;BME280;49105;46.046;10.760;2022-09-29T14:35:36;94068.09;;;13.46;73.89
63019;BME280;49105;46.046;10.760;2022-09-29T14:38:15;94082.16;;;13.46;73.56
63019;BME280;49105;46.046;10.760;2022-09-29T14:43:41;94101.75;;;13.42;73.88
63019;BME280;49105;46.046;10.760;2022-09-29T14:52:32;94115.22;;;13.36;73.84
63019;BME280;49105;46.046;10.760;2022-09-29T15:01:18;94138.69;;;13.34;74.46
63019;BME280;49105;46.046;10.760;2022-09-29T15:03:51;94144.31;;;13.33;73.41
63019;BME280;49105;46.046;10.760;2022-09-29T15:06:25;94146.88;;;13.29;73.54
63019;BME280;49105;46.046;10.760;2022-09-29T15:11:55;94157.03;;;13.27;74.12
63019;BME280;49105;46.046;10.760;2022-09-29T15:14:32;94173.13;;;13.22;74.01
63019;BME280;49105;46.046;10.760;2022-09-29T15:19:42;94150.50;;;13.16;75.01
63019;BME280;49105;46.046;10.760;2022-09-29T15:27:39;94109.75;;;13.12;75.02
63019;BME280;49105;46.046;10.760;2022-09-29T15:30:12;94118.84;;;13.11;74.56
63019;BME280;49105;46.046;10.760;2022-09-29T15:32:38;94115.75;;;13.09;74.96
63019;BME280;49105;46.046;10.760;2022-09-29T15:35:05;94127.91;;;13.10;75.31
63019;BME280;49105;46.046;10.760;2022-09-29T15:40:20;94142.38;;;13.21;75.02
63019;BME280;49105;46.046;10.760;2022-09-29T15:42:47;94152.50;;;13.28;75.10
63019;BME280;49105;46.046;10.760;2022-09-29T15:45:24;94147.09;;;13.36;75.09
63019;BME280;49105;46.046;10.760;2022-09-29T15:48:05;94153.78;;;13.43;74.59
63019;BME280;49105;46.046;10.760;2022-09-29T15:50:41;94151.44;;;13.41;75.10
63019;BME280;49105;46.046;10.760;2022-09-29T15:53:08;94150.34;;;13.42;74.76
63019;BME280;49105;46.046;10.760;2022-09-29T15:55:35;94163.78;;;13.46;75.33
63019;BME280;49105;46.046;10.760;2022-09-29T16:01:00;94162.66;;;13.47;74.34
63019;BME280;49105;46.046;10.760;2022-09-29T16:03:49;94165.19;;;13.43;74.69
63019;BME280;49105;46.046;10.760;2022-09-29T16:06:28;94161.28;;;13.40;74.40
63019;BME280;49105;46.046;10.760;2022-09-29T16:08:59;94164.41;;;13.43;74.24
63019;BME280;49105;46.046;10.760;2022-09-29T16:11:34;94148.91;;;13.45;74.33
63019;BME280;49105;46.046;10.760;2022-09-29T16:14:24;94163.78;;;13.46;74.21